Fargo, ND (58102)

2:48 AM CDT on August 31, 2015 (GMT -0500)
Hector International | | Change Station
CLOSE
Current Station
Airport
Location: Fargo,
Elevation: 899 ft
Nearby Weather Stations

Elev 899 ft 46.91 °N, 96.81 °W | Updated 55 minutes ago

Clear
Clear
69 °F
Feels Like 69 °F
N
18
Wind Variable Wind from SSE
Gusts 26 mph

Today
High -- | Low -- °F
--% Chance of Precip.
Yesterday
High -- | Low -- °F
Precip. -- in
6:45 AM 8:09 PM
Waning Gibbous, 96% visible
Pressure 29.69 in
Visibility 10.0 miles
Clouds Clear
Dew Point 61 °F
Humidity 75%
Rainfall 0.00 in
Snow Depth Not available.
UV 0 out of 12
Pollen 11.70 out of 12
Air Quality Not available.
Flu Activity Not available.
METAR KFAR 310653Z 16016G23KT 10SM CLR 21/16 A2970 RMK AO2 SLP052 T02060161
Pressure 29.69 in
Visibility 10.0 miles
Clouds Clear
Dew Point 61 °F
Humidity 75%
Rainfall 0.00 in
Snow Depth Not available.
UV 0 out of 12
Pollen 11.70 out of 12
Air Quality Not available.
Flu Activity Not available.
METAR KFAR 310653Z 16016G23KT 10SM CLR 21/16 A2970 RMK AO2 SLP052 T02060161

10-Day Weather Forecast

×

Almanac

Astronomy

Aug. 31, 2015 Rise Set
Actual Time
Civil Twilight
Nautical Twilight
Astronomical Twilight
Moon
Length of Visible Light
Length of Day
Tomorrow will be .
, % of the Moon is Illuminated

Today's Extremes

State Highs State Lows

Community

WunderPhotos

Upload Photos

1,851,220 photos uploaded!

WunderBlogs® & News

Nearby

Air Quality

  Air Quality AQ Index Pollutant
Not available.

Snow Depth

Station Depth Elevation

Earthquake Activity

City Distance Mag. Time & Date
Minimum magnitude displayed is 2.5.

Coastal Water Temperatures

Place Temperature

Stations

Nearby Weather Stations

Station Location Temp. Windchill Dew Point Humidity Wind Precip. Elev Updated Type